Camden, AL (36726)

8:08 AM CDT on August 05, 2015 (GMT -0500)
Greenville Municipal | | Change Station
CLOSE
Current Station
Airport
Location: Greenville,
Elevation: 449 ft
Nearby Weather Stations

Elev 449 ft 31.85 °N, 86.61 °W | Updated 12 minutes ago

Clear
Clear
78 °F
Feels Like 78 °F
N
0
Wind Variable Wind from North

Today
High -- | Low -- °F
--% Chance of Precip.
Yesterday
High -- | Low -- °F
Precip. -- in
6:07 AM 7:42 PM
Waning Gibbous, 67% visible
Pressure 30.04 in
Visibility 9.0 miles
Clouds Clear
Dew Point 72 °F
Humidity 81%
Rainfall 0.00 in
Snow Depth Not available.
UV 2 out of 12
Pollen 5.40 out of 12
Air Quality Not available.
Flu Activity Not available.
METAR KPRN 051256Z AUTO 00000KT 9SM CLR 26/22 A3006 RMK AO2 SLP171 T02560222

More Conditions Fewer Conditions

Pressure 30.04 in
Visibility 9.0 miles
Clouds Clear
Dew Point 72 °F
Humidity 81%
Rainfall 0.00 in
Snow Depth Not available.
UV 2 out of 12
Pollen 5.40 out of 12
Air Quality Not available.
Flu Activity Not available.
METAR KPRN 051256Z AUTO 00000KT 9SM CLR 26/22 A3006 RMK AO2 SLP171 T02560222

More Conditions Fewer Conditions

10-Day Weather Forecast

×

Almanac

Astronomy

Aug. 05, 2015 Rise Set
Actual Time
Civil Twilight
Nautical Twilight
Astronomical Twilight
Moon
Length of Visible Light
Length of Day
Tomorrow will be .
, % of the Moon is Illuminated

Today's Extremes

State Highs State Lows

Community

WunderPhotos

Upload Photos

1,844,177 photos uploaded!

WunderBlogs® & News

Nearby

Air Quality

  Air Quality AQ Index Pollutant
Not available.

Snow Depth

Station Depth Elevation

Earthquake Activity

City Distance Mag. Time & Date
Minimum magnitude displayed is 2.5.

Coastal Water Temperatures

Place Temperature

Stations

Nearby Weather Stations

Station Location Temp. Windchill Dew Point Humidity Wind Precip. Elev Updated Type